createdAt,value
2022-12-08T00:01:22.223Z,14.33
2022-12-08T00:03:50.712Z,18.07
2022-12-08T00:06:45.143Z,16.17
2022-12-08T00:09:25.637Z,15.37
2022-12-08T00:11:56.549Z,15.70
2022-12-08T00:14:26.540Z,15.23
2022-12-08T00:16:54.704Z,17.33
2022-12-08T00:19:23.119Z,12.83
2022-12-08T00:21:52.871Z,18.23
2022-12-08T00:24:21.647Z,13.13
2022-12-08T00:26:50.200Z,14.53
2022-12-08T00:29:18.426Z,12.80
2022-12-08T00:31:46.337Z,14.63
2022-12-08T00:34:15.345Z,16.73
2022-12-08T00:36:43.644Z,16.00
2022-12-08T00:39:14.872Z,19.47
2022-12-08T00:42:00.233Z,16.43
2022-12-08T00:44:28.345Z,16.67
2022-12-08T00:46:56.353Z,17.10
2022-12-08T00:49:24.213Z,14.83
2022-12-08T00:51:52.175Z,15.13
2022-12-08T00:54:22.953Z,13.70
2022-12-08T00:56:50.847Z,12.30
2022-12-08T00:59:18.922Z,17.43
2022-12-08T01:01:47.869Z,20.77
2022-12-08T01:04:18.798Z,13.10
2022-12-08T01:06:47.881Z,16.37
2022-12-08T01:09:16.990Z,18.53
2022-12-08T01:11:46.716Z,16.87
2022-12-08T01:14:14.924Z,17.97
2022-12-08T01:16:43.024Z,14.40
2022-12-08T01:19:12.189Z,13.57
2022-12-08T01:21:40.509Z,13.57
2022-12-08T01:24:11.067Z,16.10
2022-12-08T01:26:39.027Z,14.97
2022-12-08T01:29:08.653Z,16.20
2022-12-08T01:31:36.576Z,15.83
2022-12-08T01:34:04.620Z,16.63
2022-12-08T01:36:36.875Z,15.43
2022-12-08T01:39:06.933Z,15.27
2022-12-08T01:41:37.478Z,15.43
2022-12-08T01:44:25.968Z,15.43
2022-12-08T01:46:56.220Z,16.33
2022-12-08T01:49:29.107Z,18.80
2022-12-08T01:52:02.499Z,16.97
2022-12-08T01:54:34.616Z,14.53
2022-12-08T01:57:05.944Z,18.17
2022-12-08T01:59:38.753Z,15.40
2022-12-08T02:02:08.877Z,14.07
2022-12-08T02:04:36.834Z,14.30
2022-12-08T02:07:08.275Z,17.13
2022-12-08T02:09:37.581Z,18.10
2022-12-08T02:12:05.776Z,15.73
2022-12-08T02:14:33.617Z,14.60
2022-12-08T02:17:12.011Z,21.20
2022-12-08T02:20:26.122Z,15.10
2022-12-08T02:23:02.482Z,16.20
2022-12-08T02:25:41.134Z,14.93
2022-12-08T02:28:32.450Z,16.90
2022-12-08T02:31:12.242Z,14.30
2022-12-08T02:34:09.927Z,14.90
2022-12-08T02:36:49.185Z,14.10
2022-12-08T02:39:28.988Z,12.97
2022-12-08T02:42:10.958Z,17.97
2022-12-08T02:44:44.248Z,15.80
2022-12-08T02:47:15.632Z,15.33
2022-12-08T02:49:43.463Z,13.93
2022-12-08T02:52:44.119Z,13.30
2022-12-08T02:55:25.798Z,15.50
2022-12-08T02:58:27.181Z,13.60
2022-12-08T03:01:09.847Z,15.70
2022-12-08T03:03:46.395Z,16.93
2022-12-08T03:06:22.573Z,13.27
2022-12-08T03:08:56.364Z,12.47
2022-12-08T03:11:29.548Z,16.63
2022-12-08T03:14:01.335Z,22.70
2022-12-08T03:16:31.637Z,20.13
2022-12-08T03:19:03.972Z,15.10
2022-12-08T03:21:34.784Z,14.53
2022-12-08T03:24:05.713Z,16.17
2022-12-08T03:26:39.936Z,11.50
2022-12-08T03:29:08.110Z,15.23
2022-12-08T03:31:42.701Z,18.17
2022-12-08T03:34:13.461Z,15.73
2022-12-08T03:36:41.353Z,11.87
2022-12-08T03:39:09.170Z,11.80
2022-12-08T03:41:38.474Z,15.67
2022-12-08T03:44:06.613Z,17.00
2022-12-08T03:46:34.495Z,14.67
2022-12-08T03:49:02.329Z,17.70
2022-12-08T03:51:30.181Z,15.77
2022-12-08T03:53:58.116Z,15.07
2022-12-08T03:56:27.763Z,13.30
2022-12-08T03:58:57.243Z,15.47
2022-12-08T04:01:25.412Z,18.13
2022-12-08T04:03:54.005Z,14.03
2022-12-08T04:06:22.860Z,18.23
2022-12-08T04:08:51.560Z,23.73
2022-12-08T04:11:19.802Z,13.47
2022-12-08T04:13:47.946Z,14.07
2022-12-08T04:16:19.088Z,17.67
2022-12-08T04:18:47.187Z,17.00
2022-12-08T04:21:15.249Z,13.87
2022-12-08T04:23:43.138Z,16.30
2022-12-08T04:26:11.468Z,14.83
2022-12-08T04:28:39.382Z,18.73
2022-12-08T04:31:07.677Z,14.70
2022-12-08T04:33:36.862Z,16.70
2022-12-08T04:36:06.087Z,18.70
2022-12-08T04:38:34.545Z,16.87
2022-12-08T04:41:02.736Z,17.07
2022-12-08T04:43:30.844Z,14.13
2022-12-08T04:45:58.661Z,13.97
2022-12-08T04:48:26.477Z,16.20
2022-12-08T04:50:55.586Z,14.57
2022-12-08T04:53:23.433Z,14.80
2022-12-08T04:55:51.383Z,16.77
2022-12-08T04:58:21.431Z,16.03
2022-12-08T05:00:49.676Z,17.20
2022-12-08T05:03:19.666Z,13.93
2022-12-08T05:05:50.343Z,16.70
2022-12-08T05:08:19.602Z,13.73
2022-12-08T05:10:47.500Z,13.33
2022-12-08T05:13:15.320Z,18.90
2022-12-08T05:15:43.211Z,16.60
2022-12-08T05:18:11.194Z,14.80
2022-12-08T05:20:38.996Z,15.47
2022-12-08T05:23:06.821Z,19.33
2022-12-08T05:25:36.138Z,15.30
2022-12-08T05:28:32.861Z,15.10
2022-12-08T05:30:51.872Z,16.30
2022-12-08T05:33:20.015Z,15.80
2022-12-08T05:35:47.979Z,12.43
2022-12-08T05:38:15.894Z,15.67
2022-12-08T05:40:45.011Z,15.40
2022-12-08T05:43:12.867Z,16.03
2022-12-08T05:45:40.692Z,15.57
2022-12-08T05:48:08.737Z,15.30
2022-12-08T05:50:36.485Z,19.70
2022-12-08T05:53:04.239Z,12.90
2022-12-08T05:55:32.158Z,16.33
2022-12-08T05:58:06.210Z,15.77
2022-12-08T06:00:35.764Z,14.47
2022-12-08T06:03:03.767Z,19.30
2022-12-08T06:05:33.463Z,13.33
2022-12-08T06:08:01.420Z,12.57
2022-12-08T06:10:29.281Z,13.80
2022-12-08T06:12:57.213Z,11.73
2022-12-08T06:15:26.447Z,14.17
2022-12-08T06:17:54.269Z,18.20
2022-12-08T06:20:22.135Z,16.50
2022-12-08T06:22:49.989Z,14.20
2022-12-08T06:25:17.965Z,14.27
2022-12-08T06:27:45.812Z,14.80
2022-12-08T06:30:14.430Z,14.00
2022-12-08T06:32:46.712Z,13.87
2022-12-08T06:35:14.523Z,19.37
2022-12-08T06:37:43.258Z,18.20
2022-12-08T06:40:11.965Z,16.10
2022-12-08T06:42:46.535Z,14.83
2022-12-08T06:45:15.689Z,16.47
2022-12-08T06:47:43.926Z,15.47
2022-12-08T06:50:14.520Z,16.43
2022-12-08T06:52:51.741Z,19.33
2022-12-08T06:55:51.230Z,15.43
2022-12-08T06:58:15.504Z,16.37
2022-12-08T07:00:44.003Z,16.40
2022-12-08T07:03:13.278Z,14.50
2022-12-08T07:05:42.383Z,14.83
2022-12-08T07:08:10.876Z,15.67
2022-12-08T07:10:39.047Z,16.53
2022-12-08T07:13:06.878Z,16.27
2022-12-08T07:15:35.744Z,17.57
2022-12-08T07:18:03.641Z,18.00
2022-12-08T07:20:31.650Z,15.87
2022-12-08T07:23:00.818Z,14.20
2022-12-08T07:25:28.616Z,16.00
2022-12-08T07:27:56.472Z,16.60
2022-12-08T07:30:24.236Z,17.13
2022-12-08T07:32:52.083Z,16.20
2022-12-08T07:35:19.929Z,17.90
2022-12-08T07:37:47.865Z,16.03
2022-12-08T07:40:17.700Z,16.70
2022-12-08T07:42:45.521Z,14.67
2022-12-08T07:45:13.308Z,16.33
2022-12-08T07:47:41.116Z,13.07
2022-12-08T07:50:09.779Z,13.37
2022-12-08T07:52:37.543Z,18.93
2022-12-08T07:55:05.907Z,14.67
2022-12-08T07:57:35.153Z,14.30
2022-12-08T08:00:04.082Z,16.33
2022-12-08T08:02:32.285Z,20.90
2022-12-08T08:05:00.210Z,15.83
2022-12-08T08:07:29.357Z,15.73
2022-12-08T08:09:57.113Z,15.40
2022-12-08T08:12:32.891Z,14.90
2022-12-08T08:15:02.781Z,13.47
2022-12-08T08:17:30.850Z,15.30
2022-12-08T08:19:58.917Z,17.27
2022-12-08T08:22:27.703Z,14.93
2022-12-08T08:24:55.679Z,15.13
2022-12-08T08:27:24.830Z,19.33
2022-12-08T08:29:52.653Z,15.70
2022-12-08T08:32:21.773Z,19.30
2022-12-08T08:34:49.589Z,16.90
2022-12-08T08:37:17.547Z,17.87
2022-12-08T08:39:45.520Z,16.07
2022-12-08T08:42:13.352Z,17.20
2022-12-08T08:44:41.276Z,18.83
2022-12-08T08:47:11.711Z,18.50
2022-12-08T08:49:40.986Z,16.87
2022-12-08T08:52:08.879Z,18.43
2022-12-08T08:54:37.010Z,23.30
2022-12-08T08:57:05.244Z,16.80
2022-12-08T08:59:32.995Z,17.10
2022-12-08T09:02:00.891Z,15.80
2022-12-08T09:04:28.788Z,16.73
2022-12-08T09:06:58.078Z,16.27
2022-12-08T09:09:25.853Z,15.37
2022-12-08T09:11:55.155Z,21.17
2022-12-08T09:14:23.625Z,15.27
2022-12-08T09:16:51.432Z,18.80
2022-12-08T09:19:19.239Z,17.80
2022-12-08T09:21:46.961Z,15.97
2022-12-08T09:24:16.616Z,17.90
2022-12-08T09:26:45.678Z,21.27
2022-12-08T09:29:14.549Z,23.80
2022-12-08T09:31:42.903Z,20.13
2022-12-08T09:34:11.760Z,19.40
2022-12-08T09:36:39.650Z,22.87
2022-12-08T09:39:07.728Z,25.87
2022-12-08T09:41:43.463Z,19.70
2022-12-08T09:44:40.140Z,19.93
2022-12-08T09:47:17.260Z,23.07
2022-12-08T09:49:50.031Z,26.17
2022-12-08T09:52:22.540Z,28.17
2022-12-08T09:54:50.390Z,24.83
2022-12-08T09:57:23.560Z,20.17
2022-12-08T09:59:56.276Z,22.50
2022-12-08T10:02:25.829Z,23.40
2022-12-08T10:04:56.430Z,21.87
2022-12-08T10:07:31.097Z,24.77
2022-12-08T10:10:04.141Z,23.93
2022-12-08T10:12:42.392Z,21.40
2022-12-08T10:15:41.202Z,24.93
2022-12-08T10:18:16.169Z,19.20
2022-12-08T10:20:45.600Z,20.07
2022-12-08T10:23:23.586Z,26.20
2022-12-08T10:25:53.970Z,22.10
2022-12-08T10:28:23.086Z,21.40
2022-12-08T10:30:51.118Z,19.17
2022-12-08T10:33:21.302Z,21.20
2022-12-08T10:35:51.287Z,21.10
2022-12-08T10:38:23.081Z,21.90
2022-12-08T10:40:53.384Z,22.90
2022-12-08T10:43:26.515Z,19.80
2022-12-08T10:45:55.090Z,21.80
2022-12-08T10:48:27.072Z,24.67
2022-12-08T10:50:56.523Z,26.03
2022-12-08T10:53:26.411Z,22.87
2022-12-08T10:56:07.296Z,21.17
2022-12-08T10:58:40.387Z,19.47
2022-12-08T11:01:14.063Z,22.27
2022-12-08T11:03:47.129Z,22.60
2022-12-08T11:06:19.113Z,22.40
2022-12-08T11:08:50.510Z,21.17
2022-12-08T11:11:21.987Z,29.67
2022-12-08T11:13:53.529Z,17.33
2022-12-08T11:16:21.684Z,22.13
2022-12-08T11:18:58.554Z,21.93
2022-12-08T11:21:36.638Z,23.67
2022-12-08T11:24:23.034Z,22.13
2022-12-08T11:26:55.170Z,20.33
2022-12-08T11:29:24.400Z,23.03
2022-12-08T11:31:58.435Z,18.90
2022-12-08T11:34:34.732Z,19.30
2022-12-08T11:37:05.316Z,22.23
2022-12-08T11:39:36.780Z,23.00
2022-12-08T11:42:07.590Z,20.47
2022-12-08T11:44:43.348Z,23.67
2022-12-08T11:47:17.473Z,24.23
2022-12-08T11:52:28.427Z,21.67
2022-12-08T11:55:02.215Z,25.27
2022-12-08T11:57:31.138Z,21.43
2022-12-08T12:00:02.730Z,22.20
2022-12-08T12:02:35.902Z,19.63
2022-12-08T12:05:07.652Z,20.80
2022-12-08T12:07:56.471Z,22.50
2022-12-08T12:10:45.271Z,24.30
2022-12-08T12:13:32.679Z,27.33
2022-12-08T12:16:30.948Z,21.67
2022-12-08T12:19:01.809Z,21.73
2022-12-08T12:21:33.984Z,20.47
2022-12-08T12:24:07.202Z,25.30
2022-12-08T12:26:38.736Z,22.53
2022-12-08T12:29:08.650Z,24.73
2022-12-08T12:31:41.497Z,23.37
2022-12-08T12:34:16.385Z,26.30
2022-12-08T12:36:50.435Z,25.40
2022-12-08T12:39:20.843Z,21.03
2022-12-08T12:41:51.604Z,24.90
2022-12-08T12:44:43.241Z,21.37
2022-12-08T12:47:37.823Z,19.30
2022-12-08T12:50:08.317Z,24.65
2022-12-08T12:52:46.792Z,22.40
2022-12-08T12:55:23.032Z,18.60
2022-12-08T12:57:54.775Z,20.70
2022-12-08T13:00:24.224Z,24.50
2022-12-08T13:02:55.208Z,23.37
2022-12-08T13:05:26.152Z,20.00
2022-12-08T13:07:56.327Z,19.00
2022-12-08T13:10:26.533Z,24.67
2022-12-08T13:13:17.146Z,25.90
2022-12-08T13:15:51.538Z,21.00
2022-12-08T13:18:24.924Z,19.83
2022-12-08T13:20:55.216Z,21.67
2022-12-08T13:23:43.861Z,17.53
2022-12-08T13:26:18.627Z,24.27
2022-12-08T13:29:05.574Z,18.67
2022-12-08T13:31:45.237Z,21.03
2022-12-08T13:34:22.193Z,20.13
2022-12-08T13:37:19.676Z,21.40
2022-12-08T13:39:52.319Z,21.80
2022-12-08T13:42:25.821Z,23.90
2022-12-08T13:48:21.756Z,19.63
2022-12-08T13:54:45.485Z,21.50
2022-12-08T13:57:05.093Z,33.37
2022-12-08T13:59:30.269Z,22.33
2022-12-08T14:02:00.385Z,20.60
2022-12-08T14:04:48.059Z,24.60
2022-12-08T14:07:17.907Z,21.07
2022-12-08T14:09:47.406Z,24.40
2022-12-08T14:12:20.940Z,20.53
2022-12-08T14:15:06.540Z,25.33
2022-12-08T14:17:34.987Z,20.43
2022-12-08T14:20:04.403Z,20.40
2022-12-08T14:22:38.287Z,21.93
2022-12-08T14:25:08.318Z,22.10
2022-12-08T14:27:38.617Z,23.93
2022-12-08T14:30:08.723Z,24.20
2022-12-08T14:32:40.312Z,20.33
2022-12-08T14:35:21.488Z,17.43
2022-12-08T14:37:53.799Z,20.77
2022-12-08T14:40:25.182Z,19.57
2022-12-08T14:42:55.315Z,23.33
2022-12-08T14:45:23.333Z,18.73
2022-12-08T14:47:52.120Z,18.97
2022-12-08T14:50:43.506Z,18.93
2022-12-08T14:53:15.407Z,17.53
2022-12-08T14:55:47.535Z,24.93
2022-12-08T14:58:22.005Z,20.00
2022-12-08T15:00:52.369Z,14.63
2022-12-08T15:03:23.682Z,22.17
2022-12-08T15:05:53.695Z,16.87
2022-12-08T15:08:23.100Z,21.80
2022-12-08T15:11:17.764Z,19.40
2022-12-08T15:13:46.779Z,20.20
2022-12-08T15:16:28.678Z,17.03
2022-12-08T15:19:05.819Z,19.63
2022-12-08T15:21:38.934Z,19.43
2022-12-08T15:24:11.660Z,20.93
2022-12-08T15:26:42.518Z,15.53
2022-12-08T15:29:19.628Z,18.60
2022-12-08T15:31:47.657Z,17.20
2022-12-08T15:34:15.424Z,19.13
2022-12-08T15:36:45.577Z,20.80
2022-12-08T15:39:26.701Z,19.47
2022-12-08T15:41:54.570Z,23.10
2022-12-08T15:44:22.827Z,27.50
2022-12-08T15:46:50.863Z,21.30
2022-12-08T15:49:20.754Z,18.17
2022-12-08T15:51:49.082Z,22.50
2022-12-08T15:54:18.594Z,20.93
2022-12-08T15:57:18.077Z,20.77
2022-12-08T15:59:39.022Z,21.40
2022-12-08T16:02:07.058Z,17.90
2022-12-08T16:05:18.315Z,17.03
2022-12-08T16:07:26.106Z,17.57
2022-12-08T16:09:56.363Z,17.63
2022-12-08T16:18:27.824Z,17.40
2022-12-08T16:21:09.665Z,16.23
2022-12-08T16:23:45.232Z,17.80
2022-12-08T16:26:44.197Z,17.03
2022-12-08T16:29:04.904Z,18.80
2022-12-08T16:31:33.600Z,20.03
2022-12-08T16:34:01.556Z,21.33
2022-12-08T16:36:29.502Z,17.17
2022-12-08T16:38:57.392Z,21.00
2022-12-08T16:41:49.290Z,17.87
2022-12-08T16:44:17.314Z,20.40
2022-12-08T16:46:45.127Z,16.50
2022-12-08T16:49:15.356Z,14.80
2022-12-08T16:51:43.959Z,13.57
2022-12-08T16:54:11.917Z,18.13
2022-12-08T16:56:43.112Z,19.80
2022-12-08T16:59:11.256Z,19.93
2022-12-08T17:01:39.048Z,20.00
2022-12-08T17:04:30.556Z,18.20
2022-12-08T17:06:54.757Z,14.13
2022-12-08T17:09:22.672Z,16.27
2022-12-08T17:11:51.911Z,15.40
2022-12-08T17:14:19.692Z,21.27
2022-12-08T17:16:47.574Z,18.20
2022-12-08T17:19:16.092Z,19.77
2022-12-08T17:21:44.502Z,21.13
2022-12-08T17:24:14.711Z,16.07
2022-12-08T17:26:45.015Z,18.33
2022-12-08T17:29:14.257Z,16.23
2022-12-08T17:31:42.235Z,19.57
2022-12-08T17:34:11.206Z,19.20
2022-12-08T17:36:39.115Z,18.60
2022-12-08T17:39:12.034Z,18.80
2022-12-08T17:41:42.869Z,19.67
2022-12-08T17:44:13.159Z,24.40
2022-12-08T17:46:46.346Z,33.27
2022-12-08T17:49:19.467Z,37.10
2022-12-08T17:51:48.986Z,37.40
2022-12-08T17:54:18.025Z,42.00
2022-12-08T17:56:46.300Z,51.20
2022-12-08T17:59:15.051Z,45.40
2022-12-08T18:01:44.387Z,43.17
2022-12-08T18:04:13.020Z,39.00
2022-12-08T18:06:41.520Z,41.07
2022-12-08T18:09:09.901Z,31.13
2022-12-08T18:11:38.187Z,38.67
2022-12-08T18:14:10.275Z,35.13
2022-12-08T18:16:40.517Z,35.10
2022-12-08T18:19:10.837Z,31.13
2022-12-08T18:21:39.013Z,32.70
2022-12-08T18:24:08.243Z,34.53
2022-12-08T18:26:36.755Z,39.87
2022-12-08T18:29:04.869Z,30.40
2022-12-08T18:31:32.679Z,25.60
2022-12-08T18:34:00.558Z,26.27
2022-12-08T18:36:29.727Z,27.97
2022-12-08T18:38:57.528Z,25.60
2022-12-08T18:41:26.708Z,21.60
2022-12-08T18:43:55.456Z,24.30
2022-12-08T18:46:24.160Z,21.87
2022-12-08T18:48:52.960Z,20.13
2022-12-08T18:51:22.975Z,22.77
2022-12-08T18:53:52.627Z,22.10
2022-12-08T18:56:26.298Z,19.90
2022-12-08T18:58:58.431Z,22.40
2022-12-08T19:01:29.643Z,21.03
2022-12-08T19:04:26.858Z,18.20
2022-12-08T19:06:47.088Z,22.00
2022-12-08T19:09:16.563Z,21.10
2022-12-08T19:11:45.162Z,24.37
2022-12-08T19:14:13.118Z,23.10
2022-12-08T19:16:40.916Z,20.00
2022-12-08T19:19:09.109Z,24.10
2022-12-08T19:21:42.909Z,26.67
2022-12-08T19:24:13.837Z,20.57
2022-12-08T19:26:43.333Z,18.53
2022-12-08T19:29:11.368Z,22.40
2022-12-08T19:31:39.528Z,21.33
2022-12-08T19:34:09.087Z,19.60
2022-12-08T19:36:42.028Z,24.03
2022-12-08T19:39:31.889Z,24.17
2022-12-08T19:42:18.791Z,20.67
2022-12-08T19:44:55.759Z,21.47
2022-12-08T19:47:25.644Z,21.43
2022-12-08T19:49:54.653Z,18.53
2022-12-08T19:52:22.613Z,19.20
2022-12-08T19:54:50.369Z,24.10
2022-12-08T19:57:20.372Z,22.27
2022-12-08T19:59:53.005Z,24.03
2022-12-08T20:02:23.972Z,20.97
2022-12-08T20:04:51.947Z,21.13
2022-12-08T20:07:19.829Z,24.00
2022-12-08T20:09:47.652Z,20.20
2022-12-08T20:12:15.548Z,20.70
2022-12-08T20:14:46.273Z,17.17
2022-12-08T20:17:14.316Z,19.40
2022-12-08T20:19:42.141Z,21.27
2022-12-08T20:22:09.922Z,20.53
2022-12-08T20:24:37.841Z,18.77
2022-12-08T20:27:05.703Z,16.20
2022-12-08T20:29:33.870Z,17.70
2022-12-08T20:32:03.154Z,18.80
2022-12-08T20:34:31.329Z,22.27
2022-12-08T20:36:59.129Z,22.73
2022-12-08T20:39:27.087Z,22.60
2022-12-08T20:41:55.993Z,27.73
2022-12-08T20:44:23.794Z,22.87
2022-12-08T20:46:51.617Z,26.00
2022-12-08T20:49:20.969Z,23.80
2022-12-08T20:51:49.068Z,28.40
2022-12-08T20:54:16.907Z,29.80
2022-12-08T20:56:48.372Z,26.47
2022-12-08T20:59:17.845Z,34.83
2022-12-08T21:01:45.885Z,34.13
2022-12-08T21:04:14.232Z,30.50
2022-12-08T21:06:43.709Z,29.77
2022-12-08T21:09:14.581Z,39.97
2022-12-08T21:11:42.524Z,42.30
2022-12-08T21:14:10.534Z,35.43
2022-12-08T21:16:38.428Z,41.13
2022-12-08T21:19:06.922Z,40.97
2022-12-08T21:21:35.030Z,39.80
2022-12-08T21:24:05.775Z,42.53
2022-12-08T21:26:38.658Z,41.10
2022-12-08T21:29:08.017Z,42.20
2022-12-08T21:31:36.251Z,47.03
2022-12-08T21:34:05.016Z,49.87
2022-12-08T21:36:33.165Z,43.97
2022-12-08T21:39:02.456Z,38.97
2022-12-08T21:41:49.697Z,45.63
2022-12-08T21:44:19.465Z,40.33
2022-12-08T21:46:47.451Z,44.27
2022-12-08T21:49:15.804Z,34.10
2022-12-08T21:51:43.779Z,28.23
2022-12-08T21:54:18.408Z,26.83
2022-12-08T21:56:49.737Z,26.10
2022-12-08T21:59:18.239Z,21.83
2022-12-08T22:01:46.299Z,23.13
2022-12-08T22:04:17.590Z,28.33
2022-12-08T22:06:45.595Z,25.40
2022-12-08T22:09:15.227Z,22.40
2022-12-08T22:11:44.030Z,26.13
2022-12-08T22:14:15.172Z,24.00
2022-12-08T22:16:43.456Z,24.83
2022-12-08T22:19:12.090Z,22.73
2022-12-08T22:21:39.968Z,22.47
2022-12-08T22:24:08.630Z,27.40
2022-12-08T22:26:36.783Z,23.20
2022-12-08T22:29:04.837Z,21.20
2022-12-08T22:31:34.122Z,27.10
2022-12-08T22:34:01.996Z,22.60
2022-12-08T22:36:29.894Z,23.00
2022-12-08T22:38:58.065Z,27.53
2022-12-08T22:41:25.873Z,20.60
2022-12-08T22:43:53.657Z,29.43
2022-12-08T22:46:22.980Z,20.93
2022-12-08T22:48:52.763Z,25.30
2022-12-08T22:51:21.210Z,31.37
2022-12-08T22:53:49.626Z,29.43
2022-12-08T22:56:18.760Z,37.57
2022-12-08T23:01:27.540Z,29.97
2022-12-08T23:03:56.895Z,31.70
2022-12-08T23:06:25.489Z,23.73
2022-12-08T23:08:54.088Z,29.93
2022-12-08T23:11:23.902Z,30.53
2022-12-08T23:13:51.782Z,29.40
2022-12-08T23:16:19.915Z,27.83
2022-12-08T23:18:48.307Z,33.50
2022-12-08T23:21:19.435Z,24.90
2022-12-08T23:23:47.314Z,27.17
2022-12-08T23:26:23.941Z,26.97
2022-12-08T23:28:51.937Z,27.87
2022-12-08T23:31:20.542Z,28.10
2022-12-08T23:33:48.809Z,45.73
2022-12-08T23:36:21.967Z,35.60
2022-12-08T23:38:50.449Z,32.43
2022-12-08T23:41:18.478Z,39.10
2022-12-08T23:43:47.381Z,27.80
2022-12-08T23:46:17.023Z,33.50
2022-12-08T23:48:45.556Z,29.10
2022-12-08T23:51:13.996Z,37.43
2022-12-08T23:53:44.149Z,34.43
2022-12-08T23:56:14.051Z,30.80
2022-12-08T23:58:43.112Z,31.87
